createdAt,value
2022-08-25T00:02:11.868Z,23.91
2022-08-25T00:07:13.638Z,23.88
2022-08-25T00:12:20.523Z,23.84
2022-08-25T00:17:22.208Z,23.83
2022-08-25T00:22:23.998Z,23.79
2022-08-25T00:27:26.070Z,23.79
2022-08-25T00:32:28.009Z,23.74
2022-08-25T00:37:29.664Z,23.72
2022-08-25T00:42:31.738Z,23.71
2022-08-25T00:47:33.364Z,23.68
2022-08-25T00:52:41.539Z,23.65
2022-08-25T00:57:56.844Z,23.62
2022-08-25T01:02:59.459Z,23.58
2022-08-25T01:08:06.517Z,23.54
2022-08-25T01:13:26.401Z,23.49
2022-08-25T01:18:28.716Z,23.45
2022-08-25T01:23:30.334Z,23.42
2022-08-25T01:28:32.493Z,23.37
2022-08-25T01:33:34.488Z,23.33
2022-08-25T01:38:36.099Z,23.29
2022-08-25T01:43:38.959Z,23.26
2022-08-25T01:48:40.555Z,23.21
2022-08-25T01:53:44.166Z,23.18
2022-08-25T01:58:49.076Z,23.13
2022-08-25T02:03:53.823Z,23.10
2022-08-25T02:08:58.531Z,23.07
2022-08-25T02:14:01.099Z,23.04
2022-08-25T02:19:05.013Z,23.01
2022-08-25T02:24:07.782Z,22.97
2022-08-25T02:29:10.379Z,22.93
2022-08-25T02:34:12.024Z,22.91
2022-08-25T02:39:13.828Z,22.86
2022-08-25T02:44:15.442Z,22.84
2022-08-25T02:49:17.126Z,22.82
2022-08-25T02:54:18.733Z,22.81
2022-08-25T02:59:21.105Z,22.79
2022-08-25T03:04:22.850Z,22.75
2022-08-25T03:09:24.684Z,22.70
2022-08-25T03:14:26.302Z,22.67
2022-08-25T03:19:27.936Z,22.63
2022-08-25T03:24:29.611Z,22.60
2022-08-25T03:29:33.063Z,22.61
2022-08-25T03:34:34.765Z,22.58
2022-08-25T03:39:36.463Z,22.55
2022-08-25T03:44:38.107Z,22.54
2022-08-25T03:49:39.708Z,22.54
2022-08-25T03:54:41.691Z,22.53
2022-08-25T03:59:43.587Z,22.54
2022-08-25T04:04:45.310Z,22.52
2022-08-25T04:09:47.447Z,22.50
2022-08-25T04:14:49.532Z,22.48
2022-08-25T04:19:51.661Z,22.45
2022-08-25T04:24:53.315Z,22.44
2022-08-25T04:29:56.721Z,22.42
2022-08-25T04:34:58.401Z,22.41
2022-08-25T04:40:00.533Z,22.40
2022-08-25T04:45:04.053Z,22.39
2022-08-25T04:50:07.460Z,22.38
2022-08-25T04:55:09.295Z,22.36
2022-08-25T05:00:11.647Z,22.36
2022-08-25T05:05:13.309Z,22.35
2022-08-25T05:10:14.924Z,22.35
2022-08-25T05:15:39.853Z,22.36
2022-08-25T05:20:41.618Z,22.37
2022-08-25T05:25:44.519Z,22.39
2022-08-25T05:30:49.603Z,22.43
2022-08-25T05:35:51.891Z,22.48
2022-08-25T05:41:02.222Z,22.52
2022-08-25T05:46:04.242Z,22.59
2022-08-25T05:51:08.282Z,22.65
2022-08-25T05:56:10.751Z,22.71
2022-08-25T06:01:39.630Z,22.78
2022-08-25T06:06:41.492Z,22.85
2022-08-25T06:11:43.358Z,22.90
2022-08-25T06:16:44.953Z,22.96
2022-08-25T06:21:46.667Z,23.00
2022-08-25T06:26:48.311Z,23.05
2022-08-25T06:31:50.476Z,23.09
2022-08-25T06:36:52.741Z,23.15
2022-08-25T06:41:56.622Z,23.23
2022-08-25T06:47:00.678Z,23.30
2022-08-25T06:52:02.797Z,23.39
2022-08-25T06:57:06.210Z,23.48
2022-08-25T07:02:08.739Z,23.56
2022-08-25T07:07:10.433Z,23.66
2022-08-25T07:12:12.019Z,23.76
2022-08-25T07:17:13.954Z,23.85
2022-08-25T07:22:16.110Z,23.94
2022-08-25T07:27:17.926Z,24.03
2022-08-25T07:32:19.615Z,24.10
2022-08-25T07:42:45.043Z,24.27
2022-08-25T07:47:46.764Z,24.35
2022-08-25T07:52:52.150Z,24.46
2022-08-25T07:57:57.524Z,24.58
2022-08-25T08:03:01.230Z,24.71
2022-08-25T08:08:05.848Z,24.84
2022-08-25T08:13:08.931Z,24.98
2022-08-25T08:18:11.799Z,25.16
2022-08-25T08:23:14.111Z,25.31
2022-08-25T08:28:15.710Z,25.46
2022-08-25T08:33:17.375Z,25.63
2022-08-25T08:38:22.058Z,25.79
2022-08-25T08:43:33.208Z,25.92
2022-08-25T08:48:46.734Z,26.03
2022-08-25T08:53:59.919Z,26.13
2022-08-25T08:59:06.686Z,26.24
2022-08-25T09:04:17.284Z,26.34
2022-08-25T09:09:27.360Z,26.45
2022-08-25T09:14:55.869Z,26.54
2022-08-25T09:20:00.500Z,26.62
2022-08-25T09:25:10.552Z,26.71
2022-08-25T09:30:17.540Z,26.84
2022-08-25T09:35:24.232Z,27.02
2022-08-25T09:40:30.100Z,27.20
2022-08-25T09:45:42.453Z,27.31
2022-08-25T09:50:46.818Z,27.45
2022-08-25T09:55:59.978Z,27.64
2022-08-25T10:01:14.630Z,27.86
2022-08-25T10:06:16.337Z,28.05
2022-08-25T10:11:33.654Z,28.24
2022-08-25T10:16:36.185Z,28.41
2022-08-25T10:21:41.513Z,28.61
2022-08-25T10:26:51.325Z,28.76
2022-08-25T10:31:58.254Z,28.91
2022-08-25T10:37:21.663Z,29.08
2022-08-25T10:42:57.731Z,29.22
2022-08-25T10:48:24.447Z,29.34
2022-08-25T10:53:56.255Z,29.46
2022-08-25T10:59:35.588Z,29.55
2022-08-25T11:04:49.198Z,29.62
2022-08-25T11:09:55.303Z,29.66
2022-08-25T11:15:09.597Z,29.73
2022-08-25T11:20:19.941Z,29.79
2022-08-25T11:25:35.163Z,29.86
2022-08-25T11:30:38.323Z,29.93
2022-08-25T11:35:47.250Z,30.04
2022-08-25T11:41:14.564Z,30.17
2022-08-25T11:46:53.937Z,30.34
2022-08-25T11:51:55.858Z,30.52
2022-08-25T11:57:17.138Z,30.68
2022-08-25T12:02:39.198Z,30.77
2022-08-25T12:07:46.818Z,30.83
2022-08-25T12:12:48.570Z,30.82
2022-08-25T12:18:22.017Z,30.86
2022-08-25T12:23:38.084Z,30.91
2022-08-25T12:29:11.619Z,30.97
2022-08-25T12:34:32.908Z,31.12
2022-08-25T12:39:43.222Z,31.26
2022-08-25T12:44:48.005Z,31.38
2022-08-25T12:49:52.259Z,31.48
2022-08-25T12:54:59.528Z,31.59
2022-08-25T13:00:12.994Z,31.65
2022-08-25T13:05:40.071Z,31.70
2022-08-25T13:10:50.814Z,31.79
2022-08-25T13:16:08.987Z,31.90
2022-08-25T13:21:31.836Z,32.00
2022-08-25T13:26:48.041Z,32.16
2022-08-25T13:32:02.398Z,32.27
2022-08-25T13:37:31.308Z,32.38
2022-08-25T13:42:33.209Z,32.49
2022-08-25T13:47:43.716Z,32.58
2022-08-25T13:52:54.340Z,32.60
2022-08-25T13:57:59.109Z,32.64
2022-08-25T14:03:03.422Z,32.65
2022-08-25T14:08:32.645Z,32.65
2022-08-25T14:13:36.451Z,32.69
2022-08-25T14:18:54.611Z,32.71
2022-08-25T14:24:00.810Z,32.76
2022-08-25T14:29:02.793Z,32.88
2022-08-25T14:34:15.582Z,33.00
2022-08-25T14:39:18.584Z,33.11
2022-08-25T14:44:20.995Z,33.17
2022-08-25T14:49:32.743Z,33.27
2022-08-25T14:54:37.496Z,33.32
2022-08-25T14:59:43.201Z,33.36
2022-08-25T15:04:53.656Z,33.38
2022-08-25T15:09:55.300Z,33.33
2022-08-25T15:14:58.269Z,33.32
2022-08-25T15:19:59.967Z,33.26
2022-08-25T15:25:01.949Z,33.20
2022-08-25T15:30:04.694Z,33.14
2022-08-25T15:35:06.978Z,33.08
2022-08-25T15:40:09.632Z,32.98
2022-08-25T15:45:11.830Z,32.88
2022-08-25T15:50:17.424Z,32.77
2022-08-25T15:55:19.995Z,32.64
2022-08-25T16:00:22.101Z,32.53
2022-08-25T16:05:25.985Z,32.42
2022-08-25T16:10:28.110Z,32.32
2022-08-25T16:15:29.734Z,32.22
2022-08-25T16:20:34.628Z,32.09
2022-08-25T16:25:41.695Z,31.98
2022-08-25T16:30:52.697Z,31.86
2022-08-25T16:36:14.614Z,31.72
2022-08-25T16:41:20.113Z,31.61
2022-08-25T16:46:23.786Z,31.49
2022-08-25T16:51:29.654Z,31.39
2022-08-25T16:56:37.067Z,31.28
2022-08-25T17:01:40.931Z,31.17
2022-08-25T17:06:51.876Z,31.08
2022-08-25T17:11:56.848Z,30.96
2022-08-25T17:16:58.625Z,30.87
2022-08-25T17:22:00.519Z,30.80
2022-08-25T17:27:02.231Z,30.73
2022-08-25T17:32:04.693Z,30.68
2022-08-25T17:37:06.849Z,30.64
2022-08-25T17:42:09.006Z,30.60
2022-08-25T17:47:11.258Z,30.52
2022-08-25T17:52:13.224Z,30.44
2022-08-25T17:57:16.196Z,30.35
2022-08-25T18:02:17.872Z,30.26
2022-08-25T18:07:19.543Z,30.16
2022-08-25T18:12:21.396Z,30.04
2022-08-25T18:17:29.129Z,29.85
2022-08-25T18:22:32.307Z,29.72
2022-08-25T18:27:35.098Z,29.59
2022-08-25T18:32:36.803Z,29.47
2022-08-25T18:37:57.176Z,29.35
2022-08-25T18:43:02.762Z,29.27
2022-08-25T18:48:04.983Z,29.19
2022-08-25T18:53:09.460Z,29.10
2022-08-25T18:58:11.771Z,29.01
2022-08-25T19:03:16.031Z,28.95
2022-08-25T19:08:19.119Z,28.87
2022-08-25T19:13:23.533Z,28.79
2022-08-25T19:18:25.947Z,28.70
2022-08-25T19:23:32.567Z,28.62
2022-08-25T19:28:35.788Z,28.55
2022-08-25T19:33:44.755Z,28.47
2022-08-25T19:38:47.081Z,28.40
2022-08-25T19:43:56.459Z,28.34
2022-08-25T19:49:01.495Z,28.27
2022-08-25T19:54:09.209Z,28.22
2022-08-25T19:59:11.976Z,28.15
2022-08-25T20:04:13.819Z,28.06
2022-08-25T20:09:20.786Z,27.98
2022-08-25T20:14:37.866Z,27.87
2022-08-25T20:19:39.887Z,27.77
2022-08-25T20:24:50.942Z,27.70
2022-08-25T20:29:53.549Z,27.61
2022-08-25T20:34:55.915Z,27.54
2022-08-25T20:39:58.143Z,27.48
2022-08-25T20:45:00.344Z,27.42
2022-08-25T20:50:06.730Z,27.38
2022-08-25T20:55:09.846Z,27.35
2022-08-25T21:00:15.843Z,27.31
2022-08-25T21:05:17.653Z,27.29
2022-08-25T21:10:19.417Z,27.22
2022-08-25T21:15:21.134Z,27.16
2022-08-25T21:20:24.101Z,27.10
2022-08-25T21:25:25.786Z,27.07
2022-08-25T21:30:28.537Z,27.03
2022-08-25T21:35:30.774Z,27.01
2022-08-25T21:40:38.731Z,26.97
2022-08-25T21:45:45.753Z,26.90
2022-08-25T21:50:48.538Z,26.89
2022-08-25T21:55:50.459Z,26.88
2022-08-25T22:00:52.131Z,26.84
2022-08-25T22:05:55.310Z,26.82
2022-08-25T22:10:57.597Z,26.76
2022-08-25T22:15:59.338Z,26.68
2022-08-25T22:21:07.287Z,26.63
2022-08-25T22:26:11.174Z,26.59
2022-08-25T22:31:14.434Z,26.56
2022-08-25T22:36:28.659Z,26.53
2022-08-25T22:41:31.573Z,26.50
2022-08-25T22:46:34.888Z,26.50
2022-08-25T22:51:37.432Z,26.45
2022-08-25T22:56:39.788Z,26.43
2022-08-25T23:01:43.483Z,26.40
2022-08-25T23:06:45.140Z,26.35
2022-08-25T23:11:51.197Z,26.31
2022-08-25T23:16:53.459Z,26.26
2022-08-25T23:22:10.550Z,26.20
2022-08-25T23:27:15.721Z,26.13
2022-08-25T23:32:18.537Z,26.07
2022-08-25T23:37:20.149Z,26.04
2022-08-25T23:42:21.844Z,25.98
2022-08-25T23:47:23.658Z,25.93
2022-08-25T23:52:26.011Z,25.86
2022-08-25T23:57:27.611Z,25.79
